createdAt,value
2018-06-12T00:01:41.624Z,3.20
2018-06-12T00:04:12.396Z,3.33
2018-06-12T00:06:42.983Z,3.30
2018-06-12T00:09:13.216Z,3.00
2018-06-12T00:11:44.024Z,3.30
2018-06-12T00:14:14.563Z,3.40
2018-06-12T00:16:44.792Z,3.20
2018-06-12T00:19:15.287Z,3.43
2018-06-12T00:21:46.123Z,3.60
2018-06-12T00:24:16.743Z,3.40
2018-06-12T00:26:47.559Z,3.30
2018-06-12T00:29:17.799Z,3.10
2018-06-12T00:31:48.467Z,2.93
2018-06-12T00:34:18.999Z,3.10
2018-06-12T00:36:49.392Z,3.40
2018-06-12T00:39:19.627Z,3.37
2018-06-12T00:41:50.144Z,3.00
2018-06-12T00:44:20.442Z,3.10
2018-06-12T00:46:50.663Z,3.03
2018-06-12T00:49:21.167Z,3.37
2018-06-12T00:51:51.391Z,3.00
2018-06-12T00:54:21.611Z,3.47
2018-06-12T00:57:05.639Z,3.33
2018-06-12T00:59:35.904Z,2.80
2018-06-12T01:02:06.383Z,3.30
2018-06-12T01:04:36.886Z,3.10
2018-06-12T01:07:07.118Z,2.87
2018-06-12T01:09:37.405Z,3.30
2018-06-12T01:12:07.935Z,3.10
2018-06-12T01:14:38.447Z,3.10
2018-06-12T01:17:08.995Z,3.27
2018-06-12T01:19:39.403Z,3.17
2018-06-12T01:22:09.698Z,2.50
2018-06-12T01:24:39.983Z,3.13
2018-06-12T01:27:10.523Z,3.20
2018-06-12T01:29:40.735Z,3.27
2018-06-12T01:32:10.959Z,2.67
2018-06-12T01:34:41.529Z,2.60
2018-06-12T01:37:12.225Z,3.17
2018-06-12T01:39:42.543Z,3.40
2018-06-12T01:42:13.043Z,3.40
2018-06-12T01:44:43.267Z,3.17
2018-06-12T01:47:13.788Z,3.13
2018-06-12T01:49:44.359Z,2.83
2018-06-12T01:52:14.576Z,3.00
2018-06-12T01:54:44.865Z,3.17
2018-06-12T01:57:15.471Z,3.90
2018-06-12T01:59:45.787Z,3.60
2018-06-12T02:02:16.031Z,3.80
2018-06-12T02:04:46.291Z,3.80
2018-06-12T02:07:16.563Z,3.60
2018-06-12T02:09:46.899Z,3.57
2018-06-12T02:12:17.219Z,3.53
2018-06-12T02:14:47.549Z,3.13
2018-06-12T02:17:18.099Z,3.83
2018-06-12T02:19:48.505Z,3.70
2018-06-12T02:22:18.932Z,3.57
2018-06-12T02:24:49.826Z,3.60
2018-06-12T02:27:20.292Z,3.30
2018-06-12T02:29:50.519Z,3.10
2018-06-12T02:32:21.155Z,3.50
2018-06-12T02:34:51.400Z,3.20
2018-06-12T02:37:21.720Z,3.77
2018-06-12T02:39:52.512Z,3.40
2018-06-12T02:42:23.083Z,3.20
2018-06-12T02:44:53.300Z,3.43
2018-06-12T02:47:24.312Z,3.30
2018-06-12T02:49:54.552Z,3.30
2018-06-12T02:52:24.855Z,3.30
2018-06-12T02:54:55.280Z,3.33
2018-06-12T02:57:25.951Z,3.20
2018-06-12T02:59:56.176Z,2.73
2018-06-12T03:02:27.279Z,3.00
2018-06-12T03:04:58.504Z,3.37
2018-06-12T03:07:29.027Z,2.87
2018-06-12T03:09:59.837Z,2.67
2018-06-12T03:12:30.339Z,2.93
2018-06-12T03:15:00.675Z,2.67
2018-06-12T03:17:31.420Z,2.93
2018-06-12T03:20:01.684Z,2.83
2018-06-12T03:22:32.319Z,3.20
2018-06-12T03:25:02.960Z,3.00
2018-06-12T03:27:33.181Z,3.00
2018-06-12T03:30:03.391Z,3.00
2018-06-12T03:32:33.620Z,2.77
2018-06-12T03:35:03.857Z,3.00
2018-06-12T03:37:34.531Z,2.83
2018-06-12T03:40:04.824Z,2.77
2018-06-12T03:42:35.051Z,3.17
2018-06-12T03:45:05.844Z,2.43
2018-06-12T03:47:36.055Z,2.60
2018-06-12T03:50:06.320Z,2.90
2018-06-12T03:52:37.388Z,2.90
2018-06-12T03:55:07.618Z,3.20
2018-06-12T03:57:37.938Z,3.03
2018-06-12T04:00:08.572Z,2.97
2018-06-12T04:02:38.834Z,3.03
2018-06-12T04:05:09.409Z,2.90
2018-06-12T04:07:40.033Z,2.63
2018-06-12T04:10:10.315Z,3.10
2018-06-12T04:12:40.613Z,2.60
2018-06-12T04:15:10.819Z,2.67
2018-06-12T04:17:41.423Z,2.67
2018-06-12T04:20:11.727Z,2.70
2018-06-12T04:22:42.688Z,2.77
2018-06-12T04:25:12.976Z,2.53
2018-06-12T04:27:43.188Z,2.77
2018-06-12T04:30:14.324Z,2.70
2018-06-12T04:32:45.663Z,3.00
2018-06-12T04:35:16.236Z,2.70
2018-06-12T04:37:46.675Z,2.70
2018-06-12T04:40:16.968Z,2.73
2018-06-12T04:42:47.452Z,2.77
2018-06-12T04:45:17.920Z,2.80
2018-06-12T04:47:48.152Z,2.40
2018-06-12T04:50:18.400Z,2.67
2018-06-12T04:52:48.991Z,2.60
2018-06-12T04:55:19.274Z,2.80
2018-06-12T04:57:50.800Z,2.40
2018-06-12T05:00:21.449Z,2.53
2018-06-12T05:02:52.296Z,2.50
2018-06-12T05:05:29.971Z,2.77
2018-06-12T05:08:00.474Z,2.70
2018-06-12T05:10:30.730Z,2.37
2018-06-12T05:13:02.564Z,2.70
2018-06-12T05:15:33.003Z,2.60
2018-06-12T05:18:03.383Z,2.97
2018-06-12T05:20:33.919Z,2.70
2018-06-12T05:23:04.727Z,2.70
2018-06-12T05:25:35.024Z,3.00
2018-06-12T05:28:05.555Z,2.60
2018-06-12T05:30:36.140Z,2.73
2018-06-12T05:33:06.602Z,2.50
2018-06-12T05:35:37.984Z,2.60
2018-06-12T05:38:08.391Z,2.80
2018-06-12T05:40:38.621Z,3.03
2018-06-12T05:43:09.251Z,2.93
2018-06-12T05:45:39.517Z,2.83
2018-06-12T05:48:09.771Z,2.87
2018-06-12T05:50:40.024Z,2.80
2018-06-12T05:53:10.615Z,2.90
2018-06-12T05:55:41.295Z,2.67
2018-06-12T05:58:12.044Z,2.80
2018-06-12T06:00:42.311Z,2.40
2018-06-12T06:03:13.051Z,3.17
2018-06-12T06:05:43.356Z,2.53
2018-06-12T06:08:14.071Z,2.60
2018-06-12T06:10:45.703Z,2.50
2018-06-12T06:13:15.987Z,2.83
2018-06-12T06:15:46.844Z,2.83
2018-06-12T06:18:17.359Z,2.80
2018-06-12T06:20:47.829Z,2.80
2018-06-12T06:23:19.243Z,2.63
2018-06-12T06:25:49.935Z,2.87
2018-06-12T06:28:20.590Z,2.77
2018-06-12T06:30:50.382Z,2.57
2018-06-12T06:33:22.919Z,2.60
2018-06-12T06:35:54.534Z,2.93
2018-06-12T06:38:25.311Z,2.93
2018-06-12T06:40:55.346Z,2.67
2018-06-12T06:43:26.937Z,2.80
2018-06-12T06:45:58.360Z,2.60
2018-06-12T06:48:31.919Z,2.90
2018-06-12T06:51:02.963Z,2.57
2018-06-12T06:53:33.368Z,2.63
2018-06-12T06:56:06.824Z,2.80
2018-06-12T06:58:38.259Z,2.77
2018-06-12T07:01:08.520Z,3.03
2018-06-12T07:03:40.131Z,2.70
2018-06-12T07:06:11.931Z,2.80
2018-06-12T07:08:42.329Z,2.80
2018-06-12T07:11:12.823Z,2.83
2018-06-12T07:13:43.060Z,2.77
2018-06-12T07:16:15.699Z,2.50
2018-06-12T07:18:46.349Z,2.60
2018-06-12T07:21:22.544Z,2.77
2018-06-12T07:23:52.749Z,2.90
2018-06-12T07:26:22.628Z,2.83
2018-06-12T07:28:52.902Z,2.57
2018-06-12T07:31:23.143Z,2.50
2018-06-12T07:33:53.858Z,2.70
2018-06-12T07:36:24.088Z,2.87
2018-06-12T07:38:54.495Z,2.67
2018-06-12T07:41:24.729Z,2.80
2018-06-12T07:43:55.064Z,3.00
2018-06-12T07:46:25.460Z,2.50
2018-06-12T07:48:56.140Z,2.27
2018-06-12T07:51:26.664Z,2.40
2018-06-12T07:53:57.478Z,2.50
2018-06-12T07:56:27.743Z,2.40
2018-06-12T07:58:58.687Z,2.30
2018-06-12T08:01:29.023Z,2.40
2018-06-12T08:03:59.556Z,2.43
2018-06-12T08:06:29.785Z,2.37
2018-06-12T08:09:00.103Z,2.60
2018-06-12T08:11:30.523Z,2.50
2018-06-12T08:14:00.815Z,2.63
2018-06-12T08:16:32.368Z,2.20
2018-06-12T08:19:02.645Z,2.37
2018-06-12T08:21:32.985Z,2.30
2018-06-12T08:24:04.147Z,2.47
2018-06-12T08:26:34.427Z,2.13
2018-06-12T08:29:04.904Z,2.60
2018-06-12T08:31:35.151Z,2.50
2018-06-12T08:34:05.740Z,2.50
2018-06-12T08:36:36.541Z,2.60
2018-06-12T08:39:08.646Z,2.90
2018-06-12T08:41:39.051Z,2.53
2018-06-12T08:44:10.023Z,2.23
2018-06-12T08:46:40.244Z,2.57
2018-06-12T08:49:10.995Z,2.60
2018-06-12T08:51:41.299Z,2.70
2018-06-12T08:54:11.659Z,2.80
2018-06-12T08:56:42.275Z,2.40
2018-06-12T08:59:12.911Z,2.50
2018-06-12T09:01:43.158Z,2.43
2018-06-12T09:04:13.840Z,2.60
2018-06-12T09:06:44.087Z,3.10
2018-06-12T09:09:14.701Z,2.70
2018-06-12T09:11:51.527Z,2.63
2018-06-12T09:14:25.180Z,2.40
2018-06-12T09:16:55.515Z,3.00
2018-06-12T09:19:25.897Z,3.13
2018-06-12T09:21:56.357Z,2.50
2018-06-12T09:24:27.203Z,2.70
2018-06-12T09:26:57.504Z,2.57
2018-06-12T09:29:27.726Z,2.53
2018-06-12T09:31:57.964Z,2.40
2018-06-12T09:34:28.672Z,2.20
2018-06-12T09:36:58.967Z,2.50
2018-06-12T09:39:29.331Z,2.20
2018-06-12T09:41:59.616Z,2.00
2018-06-12T09:44:29.951Z,2.20
2018-06-12T09:47:00.508Z,2.30
2018-06-12T09:49:31.116Z,2.00
2018-06-12T09:52:01.396Z,2.03
2018-06-12T09:54:41.022Z,2.37
2018-06-12T09:57:11.583Z,1.97
2018-06-12T09:59:42.292Z,2.03
2018-06-12T10:02:12.602Z,2.50
2018-06-12T10:04:42.896Z,2.53
2018-06-12T10:07:13.247Z,2.10
2018-06-12T10:09:43.663Z,2.03
2018-06-12T10:12:13.946Z,2.00
2018-06-12T10:14:44.980Z,2.10
2018-06-12T10:17:15.256Z,2.17
2018-06-12T10:19:45.601Z,2.17
2018-06-12T10:22:15.899Z,2.23
2018-06-12T10:24:46.200Z,2.07
2018-06-12T10:27:16.512Z,2.40
2018-06-12T10:29:46.752Z,2.40
2018-06-12T10:32:16.979Z,2.50
2018-06-12T10:34:47.611Z,2.00
2018-06-12T10:37:17.864Z,2.20
2018-06-12T10:39:48.555Z,1.90
2018-06-12T10:42:18.815Z,1.97
2018-06-12T10:44:49.088Z,1.80
2018-06-12T10:47:19.911Z,2.10
2018-06-12T10:49:50.244Z,2.00
2018-06-12T10:52:20.769Z,1.90
2018-06-12T10:54:51.540Z,2.10
2018-06-12T10:57:21.812Z,2.10
2018-06-12T10:59:52.475Z,1.87
2018-06-12T11:02:22.812Z,2.20
2018-06-12T11:04:53.895Z,2.07
2018-06-12T11:07:24.763Z,2.40
2018-06-12T11:09:55.964Z,1.80
2018-06-12T11:12:30.946Z,2.00
2018-06-12T11:15:02.363Z,2.03
2018-06-12T11:17:32.648Z,1.70
2018-06-12T11:22:21.414Z,2.03
2018-06-12T11:24:52.283Z,2.00
2018-06-12T11:27:23.574Z,2.07
2018-06-12T11:29:54.043Z,2.07
2018-06-12T11:32:24.363Z,2.00
2018-06-12T11:34:54.607Z,1.73
2018-06-12T11:37:24.841Z,2.10
2018-06-12T11:39:55.551Z,1.90
2018-06-12T11:42:25.947Z,1.87
2018-06-12T11:44:56.175Z,1.90
2018-06-12T11:47:27.206Z,1.73
2018-06-12T11:49:57.547Z,1.87
2018-06-12T11:52:27.807Z,1.90
2018-06-12T11:54:58.098Z,1.77
2018-06-12T11:57:28.742Z,1.73
2018-06-12T11:59:59.562Z,1.60
2018-06-12T12:02:30.078Z,1.67
2018-06-12T12:05:00.438Z,1.77
2018-06-12T12:07:30.754Z,1.47
2018-06-12T12:10:01.391Z,1.73
2018-06-12T12:12:31.905Z,1.77
2018-06-12T12:15:02.252Z,1.60
2018-06-12T12:17:32.996Z,1.93
2018-06-12T12:20:03.348Z,2.93
2018-06-12T12:22:33.964Z,1.70
2018-06-12T12:25:04.357Z,1.70
2018-06-12T12:27:35.053Z,1.40
2018-06-12T12:30:10.803Z,1.80
2018-06-12T12:32:41.099Z,1.70
2018-06-12T12:35:11.547Z,1.80
2018-06-12T12:37:42.275Z,1.43
2018-06-12T12:40:12.499Z,1.70
2018-06-12T12:42:42.947Z,1.50
2018-06-12T12:45:13.259Z,1.37
2018-06-12T12:47:43.499Z,1.23
2018-06-12T12:50:13.787Z,1.33
2018-06-12T12:52:44.000Z,1.47
2018-06-12T12:55:14.393Z,1.30
2018-06-12T12:57:44.967Z,1.20
2018-06-12T13:00:16.093Z,1.50
2018-06-12T13:02:46.495Z,1.40
2018-06-12T13:05:16.788Z,1.70
2018-06-12T13:07:47.167Z,1.70
2018-06-12T13:10:18.496Z,1.50
2018-06-12T13:12:50.071Z,1.40
2018-06-12T13:15:20.912Z,1.57
2018-06-12T13:17:52.076Z,1.30
2018-06-12T13:20:23.618Z,1.50
2018-06-12T13:22:54.772Z,1.27
2018-06-12T13:25:25.452Z,1.40
2018-06-12T13:27:56.078Z,1.30
2018-06-12T13:30:26.867Z,1.60
2018-06-12T13:32:57.127Z,1.30
2018-06-12T13:35:27.916Z,1.50
2018-06-12T13:37:58.733Z,1.43
2018-06-12T13:40:29.415Z,1.60
2018-06-12T13:42:59.663Z,1.60
2018-06-12T13:45:30.037Z,1.30
2018-06-12T13:48:00.320Z,1.40
2018-06-12T13:50:30.915Z,1.53
2018-06-12T13:53:01.401Z,1.50
2018-06-12T13:55:31.691Z,1.47
2018-06-12T13:58:02.033Z,1.63
2018-06-12T14:00:32.451Z,1.80
2018-06-12T14:03:04.516Z,1.67
2018-06-12T14:05:37.883Z,1.93
2018-06-12T14:08:09.175Z,1.50
2018-06-12T14:10:39.558Z,1.83
2018-06-12T14:13:09.924Z,1.70
2018-06-12T14:15:40.606Z,1.67
2018-06-12T14:18:11.448Z,1.60
2018-06-12T14:20:42.281Z,1.60
2018-06-12T14:23:12.908Z,1.50
2018-06-12T14:25:43.710Z,1.60
2018-06-12T14:28:15.463Z,2.13
2018-06-12T14:30:46.335Z,1.80
2018-06-12T14:33:17.103Z,1.63
2018-06-12T14:35:47.559Z,1.70
2018-06-12T14:38:24.445Z,1.70
